Time;durP1;ratioP1;P1;durP2;ratioP2;P2;SDS_P1;SDS_P2;PMS_P1;PMS_P2;Temp;Humidity;BMP_temperature;BMP_pressure;BME280_temperature;BME280_humidity;BME280_pressure;Samples;Min_cycle;Max_cycle;Signal;HPM_P1;HPM_P2
2023/03/23 00:01:12;;;;;;;;;;;10.70;99.90;;;;;;5058074;28;20369;-73
2023/03/23 00:03:40;;;;;;;;;;;10.70;99.90;;;;;;5044058;28;211915;-72
2023/03/23 00:06:06;;;;;;;;;;;10.80;99.90;;;;;;4974972;28;188534;-71
2023/03/23 00:08:33;;;;;;;;;;;10.80;99.90;;;;;;5060555;28;20315;-73
2023/03/23 00:11:01;;;;;;;;;;;10.80;99.90;;;;;;5007517;28;206800;-71
2023/03/23 00:13:28;;;;;;;;;;;10.80;99.90;;;;;;5076587;28;21619;-75
2023/03/23 00:15:53;;;;;;;;;;;10.80;99.90;;;;;;5005612;28;206592;-70
2023/03/23 00:18:23;;;;;;;;;;;10.90;99.90;;;;;;5063714;28;19928;-71
2023/03/23 00:20:53;;;;;;;;;;;10.90;99.90;;;;;;5014392;28;212479;-71
2023/03/23 00:23:20;;;;;;;;;;;10.90;99.90;;;;;;5059402;28;19932;-72
2023/03/23 00:25:56;;;;;;;;;;;10.90;99.90;;;;;;4989016;28;206820;-73
2023/03/23 00:28:24;;;;;;;;;;;10.90;99.90;;;;;;5071727;28;19935;-74
2023/03/23 00:30:56;;;;;;;;;;;10.80;99.90;;;;;;5003843;28;191914;-74
2023/03/23 00:33:23;;;;;;;;;;;10.90;99.90;;;;;;5060416;28;19927;-74
2023/03/23 00:35:52;;;;;;;;;;;10.80;99.90;;;;;;5013568;28;202696;-72
2023/03/23 00:38:19;;;;;;;;;;;10.90;99.90;;;;;;5058738;28;19924;-74
2023/03/23 00:40:47;;;;;;;;;;;10.90;99.90;;;;;;5018023;28;241324;-73
2023/03/23 00:43:16;;;;;;;;;;;10.90;99.90;;;;;;5065315;28;19951;-73
2023/03/23 00:45:44;;;;;;;;;;;10.90;99.90;;;;;;5029443;28;212857;-74
2023/03/23 00:48:13;;;;;;;;;;;10.90;99.90;;;;;;5073895;28;19931;-74
2023/03/23 00:50:39;;;;;;;;;;;10.90;99.90;;;;;;5032063;28;205758;-75
2023/03/23 00:53:05;;;;;;;;;;;10.90;99.90;;;;;;5079002;28;19929;-75
2023/03/23 00:55:31;;;;;;;;;;;10.90;99.90;;;;;;5042659;28;206674;-74
2023/03/23 00:57:57;;;;;;;;;;;10.80;99.90;;;;;;5087831;28;19916;-74
2023/03/23 01:00:23;;;;;;;;;;;10.90;99.90;;;;;;5009002;28;208239;-75
2023/03/23 01:02:55;;;;;;;;;;;10.90;99.90;;;;;;5068900;28;19928;-73
2023/03/23 01:05:21;;;;;;;;;;;10.90;99.90;;;;;;5011088;28;206894;-73
2023/03/23 01:07:48;;;;;;;;;;;10.90;99.90;;;;;;5060584;28;19924;-73
2023/03/23 01:10:15;;;;;;;;;;;10.90;99.90;;;;;;5020023;28;213324;-72
2023/03/23 01:12:43;;;;;;;;;;;10.90;99.90;;;;;;5079495;28;20043;-72
2023/03/23 01:15:09;;;;;;;;;;;10.90;99.90;;;;;;5029910;28;210107;-72
2023/03/23 01:17:35;;;;;;;;;;;10.90;99.90;;;;;;5086688;28;19927;-72
2023/03/23 01:20:01;;;;;;;;;;;10.90;99.90;;;;;;5010199;28;191174;-72
2023/03/23 01:22:27;;;;;;;;;;;10.90;99.90;;;;;;5074205;28;19924;-71
2023/03/23 01:24:53;;;;;;;;;;;10.90;99.90;;;;;;5015695;28;209392;-71
2023/03/23 01:27:19;;;;;;;;;;;11.00;99.90;;;;;;5071980;28;20849;-71
2023/03/23 01:29:45;;;;;;;;;;;11.00;99.90;;;;;;5010229;28;210768;-71
2023/03/23 01:32:11;;;;;;;;;;;11.00;99.90;;;;;;5066508;28;20316;-71
2023/03/23 01:34:36;;;;;;;;;;;11.00;99.90;;;;;;5011463;28;210017;-71
2023/03/23 01:37:02;;;;;;;;;;;11.00;99.90;;;;;;5070001;28;19921;-72
2023/03/23 01:39:28;;;;;;;;;;;11.00;99.90;;;;;;5025476;28;165549;-71
2023/03/23 01:41:54;;;;;;;;;;;11.00;99.90;;;;;;5042563;28;19931;-70
2023/03/23 01:44:20;;;;;;;;;;;11.00;99.90;;;;;;5016389;28;207187;-71
2023/03/23 01:46:46;;;;;;;;;;;11.10;99.90;;;;;;5047537;28;19947;-71
2023/03/23 01:49:21;;;;;;;;;;;11.00;99.90;;;;;;5019324;28;208481;-72
2023/03/23 01:51:49;;;;;;;;;;;11.10;99.90;;;;;;5061423;28;19931;-72
2023/03/23 01:54:19;;;;;;;;;;;11.10;99.90;;;;;;5008371;28;207339;-72
2023/03/23 01:56:47;;;;;;;;;;;11.10;99.90;;;;;;5074285;28;19931;-72
2023/03/23 01:59:13;;;;;;;;;;;11.10;99.90;;;;;;5015480;28;208531;-71
2023/03/23 02:01:44;;;;;;;;;;;11.20;99.90;;;;;;5043326;28;20407;-72
2023/03/23 02:04:14;;;;;;;;;;;11.20;99.90;;;;;;4988760;28;206262;-72
2023/03/23 02:06:40;;;;;;;;;;;11.20;99.90;;;;;;5073493;28;19939;-71
2023/03/23 02:09:06;;;;;;;;;;;11.20;99.90;;;;;;5005056;28;206820;-70
2023/03/23 02:11:32;;;;;;;;;;;11.20;99.90;;;;;;5042644;28;19924;-70
2023/03/23 02:13:59;;;;;;;;;;;11.30;99.90;;;;;;4992188;28;207257;-72
2023/03/23 02:16:43;;;;;;;;;;;11.20;99.90;;;;;;5056279;28;20356;-71
2023/03/23 02:19:32;;;;;;;;;;;11.30;99.90;;;;;;5018009;28;163593;-72
2023/03/23 02:22:07;;;;;;;;;;;11.20;99.90;;;;;;5057706;28;19924;-71
2023/03/23 02:24:42;;;;;;;;;;;11.20;99.90;;;;;;5019290;28;181485;-72
2023/03/23 02:27:10;;;;;;;;;;;11.20;99.90;;;;;;5058972;28;19931;-71
2023/03/23 02:29:39;;;;;;;;;;;11.20;99.90;;;;;;5014200;28;144198;-71
2023/03/23 02:32:17;;;;;;;;;;;11.10;99.90;;;;;;5075042;28;19928;-71
2023/03/23 02:34:54;;;;;;;;;;;11.10;99.90;;;;;;5011700;28;207751;-72
2023/03/23 02:37:24;;;;;;;;;;;11.10;99.90;;;;;;5050316;28;20360;-72
2023/03/23 02:39:57;;;;;;;;;;;11.10;99.90;;;;;;5008400;28;209111;-70
2023/03/23 02:42:26;;;;;;;;;;;11.10;99.90;;;;;;5058345;28;19929;-72
2023/03/23 02:44:52;;;;;;;;;;;11.10;99.90;;;;;;4993565;28;214112;-72
2023/03/23 02:47:23;;;;;;;;;;;11.10;99.90;;;;;;5047278;28;19962;-71
2023/03/23 02:49:51;;;;;;;;;;;11.10;99.90;;;;;;4993949;28;221995;-72
2023/03/23 02:52:19;;;;;;;;;;;11.10;99.90;;;;;;5057129;28;19924;-72
2023/03/23 02:54:47;;;;;;;;;;;11.10;99.90;;;;;;4999471;28;209136;-72
2023/03/23 02:57:13;;;;;;;;;;;11.10;99.90;;;;;;5059914;28;19942;-72
2023/03/23 02:59:39;;;;;;;;;;;11.10;99.90;;;;;;5011152;28;24704;-70
2023/03/23 03:02:05;;;;;;;;;;;11.10;99.90;;;;;;5050049;28;19925;-71
2023/03/23 03:04:33;;;;;;;;;;;11.10;99.90;;;;;;4997008;28;207237;-71
2023/03/23 03:07:38;;;;;;;;;;;11.10;99.90;;;;;;5061211;28;20244;-72
2023/03/23 03:10:11;;;;;;;;;;;11.10;99.90;;;;;;4973561;28;190472;-71
2023/03/23 03:12:43;;;;;;;;;;;11.10;99.90;;;;;;5019502;28;19936;-72
2023/03/23 03:15:16;;;;;;;;;;;11.00;99.90;;;;;;4958779;28;206615;-71
2023/03/23 03:17:45;;;;;;;;;;;11.00;99.90;;;;;;5018420;28;19933;-72
2023/03/23 03:20:13;;;;;;;;;;;11.00;99.90;;;;;;4985409;28;153045;-72
2023/03/23 03:22:42;;;;;;;;;;;11.00;99.90;;;;;;5009199;28;19944;-72
2023/03/23 03:25:08;;;;;;;;;;;11.00;99.90;;;;;;4976524;28;205982;-72
2023/03/23 03:27:34;;;;;;;;;;;11.00;99.90;;;;;;5022358;28;19929;-72
2023/03/23 03:30:03;;;;;;;;;;;11.00;99.90;;;;;;4952230;28;207739;-72
2023/03/23 03:32:38;;;;;;;;;;;11.00;99.90;;;;;;5022679;28;19925;-71
2023/03/23 03:35:05;;;;;;;;;;;11.00;99.90;;;;;;4975687;28;206590;-71
2023/03/23 03:37:37;;;;;;;;;;;11.10;99.90;;;;;;5025899;28;20138;-71
2023/03/23 03:40:07;;;;;;;;;;;11.10;99.90;;;;;;4959183;28;208449;-71
2023/03/23 03:42:34;;;;;;;;;;;11.00;99.90;;;;;;5067763;28;19924;-73
2023/03/23 03:45:00;;;;;;;;;;;10.90;99.90;;;;;;5008520;28;211385;-71
2023/03/23 03:47:26;;;;;;;;;;;10.90;99.90;;;;;;5040035;28;19924;-72
2023/03/23 03:49:52;;;;;;;;;;;10.90;99.90;;;;;;4995426;28;202078;-73
2023/03/23 03:52:17;;;;;;;;;;;10.80;99.90;;;;;;5055069;28;19999;-74
2023/03/23 03:54:44;;;;;;;;;;;10.80;99.90;;;;;;5005741;28;209686;-75
2023/03/23 03:57:11;;;;;;;;;;;10.70;99.90;;;;;;5045838;28;19925;-75
2023/03/23 03:59:37;;;;;;;;;;;10.70;99.90;;;;;;5012482;28;210505;-74
2023/03/23 04:02:03;;;;;;;;;;;10.70;99.90;;;;;;5059828;28;19936;-74
2023/03/23 04:04:29;;;;;;;;;;;10.70;99.90;;;;;;4996058;28;206874;-74
2023/03/23 04:06:57;;;;;;;;;;;10.70;99.90;;;;;;5054603;28;19924;-73
2023/03/23 04:09:23;;;;;;;;;;;10.70;99.90;;;;;;5005278;28;207443;-74
2023/03/23 04:11:49;;;;;;;;;;;10.70;99.90;;;;;;5059188;28;19925;-73
2023/03/23 04:14:15;;;;;;;;;;;10.80;99.90;;;;;;5008425;28;205842;-74
2023/03/23 04:16:41;;;;;;;;;;;10.80;99.90;;;;;;5052201;28;19931;-73
2023/03/23 04:19:07;;;;;;;;;;;10.80;99.90;;;;;;5002751;28;205751;-72
2023/03/23 04:21:33;;;;;;;;;;;10.90;99.90;;;;;;5061888;28;19942;-73
2023/03/23 04:23:59;;;;;;;;;;;11.00;99.90;;;;;;5009818;28;209754;-73
2023/03/23 04:26:26;;;;;;;;;;;10.90;99.90;;;;;;5075503;28;20039;-78
2023/03/23 04:28:52;;;;;;;;;;;10.80;99.90;;;;;;5005026;28;209934;-77
2023/03/23 04:31:18;;;;;;;;;;;10.70;99.90;;;;;;5060295;28;21172;-79
2023/03/23 04:33:46;;;;;;;;;;;10.60;99.90;;;;;;5023661;28;206674;-75
2023/03/23 04:36:15;;;;;;;;;;;10.60;99.90;;;;;;5073456;28;19924;-75
2023/03/23 04:38:42;;;;;;;;;;;10.60;99.90;;;;;;5032952;28;206876;-77
2023/03/23 04:41:08;;;;;;;;;;;10.60;99.90;;;;;;5052009;28;19932;-78
2023/03/23 04:43:41;;;;;;;;;;;10.50;99.90;;;;;;5045658;28;19951;-72
2023/03/23 04:46:08;;;;;;;;;;;10.40;99.90;;;;;;5016080;28;19955;-75
2023/03/23 04:48:35;;;;;;;;;;;10.40;99.90;;;;;;5062384;28;19928;-77
2023/03/23 04:51:02;;;;;;;;;;;10.30;99.90;;;;;;5008063;28;208528;-76
2023/03/23 04:53:29;;;;;;;;;;;10.30;99.90;;;;;;5063883;28;19929;-76
2023/03/23 04:55:55;;;;;;;;;;;10.30;99.90;;;;;;4975464;28;170909;-78
2023/03/23 04:58:23;;;;;;;;;;;10.30;99.90;;;;;;5064229;28;19921;-74
2023/03/23 05:00:51;;;;;;;;;;;10.20;99.90;;;;;;5022846;28;206008;-76
2023/03/23 05:03:18;;;;;;;;;;;10.20;99.90;;;;;;5063136;28;19924;-73
2023/03/23 05:05:47;;;;;;;;;;;10.10;99.90;;;;;;5016520;28;205776;-73
2023/03/23 05:08:13;;;;;;;;;;;10.20;99.90;;;;;;5074692;28;19943;-73
2023/03/23 05:10:39;;;;;;;;;;;10.20;99.90;;;;;;5009263;28;208138;-73
2023/03/23 05:13:05;;;;;;;;;;;10.10;99.90;;;;;;5067015;28;19974;-73
2023/03/23 05:15:31;;;;;;;;;;;10.10;99.90;;;;;;4981284;28;210273;-72
2023/03/23 05:17:57;;;;;;;;;;;10.10;99.90;;;;;;5063235;28;19927;-72
2023/03/23 05:20:22;;;;;;;;;;;10.00;99.90;;;;;;5023730;28;207340;-72
2023/03/23 05:22:49;;;;;;;;;;;10.00;99.90;;;;;;5071167;28;19933;-72
2023/03/23 05:25:15;;;;;;;;;;;9.90;99.90;;;;;;5024607;28;207454;-73
2023/03/23 05:27:48;;;;;;;;;;;9.90;99.90;;;;;;5065981;28;19929;-72
2023/03/23 05:30:18;;;;;;;;;;;10.00;99.90;;;;;;5015385;28;209028;-71
2023/03/23 05:32:44;;;;;;;;;;;10.00;99.90;;;;;;5061851;28;19931;-70
2023/03/23 05:35:11;;;;;;;;;;;9.90;99.90;;;;;;4989601;28;214660;-72
2023/03/23 05:37:38;;;;;;;;;;;10.00;99.90;;;;;;5067719;28;19920;-71
2023/03/23 05:40:06;;;;;;;;;;;10.00;99.90;;;;;;5018366;28;208984;-72
2023/03/23 05:42:32;;;;;;;;;;;10.10;99.90;;;;;;5068226;28;19928;-72
2023/03/23 05:44:58;;;;;;;;;;;10.10;99.90;;;;;;5019916;28;208594;-71
2023/03/23 05:47:25;;;;;;;;;;;10.20;99.90;;;;;;5068968;28;20388;-72
2023/03/23 05:49:54;;;;;;;;;;;10.20;99.90;;;;;;5013955;28;120564;-71
2023/03/23 05:52:20;;;;;;;;;;;10.20;99.90;;;;;;5066555;28;19921;-71
2023/03/23 05:54:46;;;;;;;;;;;10.20;99.90;;;;;;5016437;28;207125;-71
2023/03/23 05:57:12;;;;;;;;;;;10.20;99.90;;;;;;5065184;28;19920;-71
2023/03/23 05:59:38;;;;;;;;;;;10.20;99.90;;;;;;4998182;28;208922;-71
2023/03/23 06:02:05;;;;;;;;;;;10.10;99.90;;;;;;5059742;28;19927;-71
2023/03/23 06:04:33;;;;;;;;;;;10.20;99.90;;;;;;4994584;28;208296;-71
2023/03/23 06:07:00;;;;;;;;;;;10.20;99.90;;;;;;5056860;28;19924;-71
2023/03/23 06:09:26;;;;;;;;;;;10.20;99.90;;;;;;5002717;28;214745;-71
2023/03/23 06:11:52;;;;;;;;;;;10.30;99.90;;;;;;5054963;28;19920;-72
2023/03/23 06:14:18;;;;;;;;;;;10.30;99.90;;;;;;5011207;28;207187;-71
2023/03/23 06:16:44;;;;;;;;;;;10.30;99.90;;;;;;5058754;28;19928;-72
2023/03/23 06:19:11;;;;;;;;;;;10.30;99.90;;;;;;5009119;28;207541;-72
2023/03/23 06:21:37;;;;;;;;;;;10.40;99.90;;;;;;5072427;28;19925;-70
2023/03/23 06:24:03;;;;;;;;;;;10.40;99.90;;;;;;5007864;28;211014;-71
2023/03/23 06:26:34;;;;;;;;;;;10.40;99.90;;;;;;5056637;28;19929;-71
2023/03/23 06:29:00;;;;;;;;;;;10.40;99.90;;;;;;4990599;28;209234;-71
2023/03/23 06:31:27;;;;;;;;;;;10.40;99.90;;;;;;5041613;28;20046;-72
2023/03/23 06:33:53;;;;;;;;;;;10.40;99.90;;;;;;5003272;28;208441;-72
2023/03/23 06:36:19;;;;;;;;;;;10.50;99.90;;;;;;5070345;28;19931;-71
2023/03/23 06:38:45;;;;;;;;;;;10.40;99.90;;;;;;5028128;28;207525;-71
2023/03/23 06:41:11;;;;;;;;;;;10.50;99.90;;;;;;5045854;28;20176;-71
2023/03/23 06:43:39;;;;;;;;;;;10.40;99.90;;;;;;5055985;28;209291;-71
2023/03/23 06:46:08;;;;;;;;;;;10.50;99.90;;;;;;5038438;28;24784;-70
2023/03/23 06:48:34;;;;;;;;;;;10.50;99.90;;;;;;5054336;28;19924;-70
2023/03/23 06:50:59;;;;;;;;;;;10.50;99.90;;;;;;5008732;28;210399;-71
2023/03/23 06:53:25;;;;;;;;;;;10.50;99.90;;;;;;5057444;28;19958;-71
2023/03/23 06:55:51;;;;;;;;;;;10.60;99.90;;;;;;5010318;28;206606;-72
2023/03/23 06:58:17;;;;;;;;;;;10.60;99.90;;;;;;5072525;28;19928;-71
2023/03/23 07:00:44;;;;;;;;;;;10.60;99.90;;;;;;5015442;28;212952;-71
2023/03/23 07:03:10;;;;;;;;;;;10.70;99.90;;;;;;5058490;28;19928;-72
2023/03/23 07:05:36;;;;;;;;;;;10.60;99.90;;;;;;4981423;28;222806;-72
2023/03/23 07:08:02;;;;;;;;;;;10.70;99.90;;;;;;5049354;28;20022;-70
2023/03/23 07:10:29;;;;;;;;;;;10.70;99.90;;;;;;4996043;28;218737;-71
2023/03/23 07:12:55;;;;;;;;;;;10.70;99.90;;;;;;5052394;28;19929;-71
2023/03/23 07:15:21;;;;;;;;;;;10.70;99.90;;;;;;5016966;28;208241;-71
2023/03/23 07:17:47;;;;;;;;;;;10.70;99.90;;;;;;5055570;28;19920;-72
2023/03/23 07:20:14;;;;;;;;;;;10.70;99.90;;;;;;5001047;28;207632;-70
2023/03/23 07:22:40;;;;;;;;;;;10.70;99.90;;;;;;5051237;28;20035;-70
2023/03/23 07:25:07;;;;;;;;;;;10.70;99.90;;;;;;5011511;28;207737;-70
2023/03/23 07:27:33;;;;;;;;;;;10.70;99.90;;;;;;5054345;28;19924;-70
2023/03/23 07:29:59;;;;;;;;;;;10.70;99.90;;;;;;5016026;28;208994;-70
2023/03/23 07:32:25;;;;;;;;;;;10.80;99.90;;;;;;5058611;28;19925;-69
2023/03/23 07:34:51;;;;;;;;;;;10.80;99.90;;;;;;5012971;28;206646;-70
2023/03/23 07:37:17;;;;;;;;;;;10.80;99.90;;;;;;5057975;28;19982;-70
2023/03/23 07:39:43;;;;;;;;;;;10.80;99.90;;;;;;5014184;28;210993;-70
2023/03/23 07:42:09;;;;;;;;;;;10.90;99.90;;;;;;5061714;28;19924;-70
2023/03/23 07:44:35;;;;;;;;;;;11.00;99.90;;;;;;5006465;28;206602;-70
2023/03/23 07:47:01;;;;;;;;;;;11.00;99.90;;;;;;5053942;28;19924;-71
2023/03/23 07:49:28;;;;;;;;;;;11.00;99.90;;;;;;5012174;28;206235;-71
2023/03/23 07:51:54;;;;;;;;;;;11.00;99.90;;;;;;5054040;28;19924;-71
2023/03/23 07:54:20;;;;;;;;;;;11.10;99.90;;;;;;5008336;28;210009;-71
2023/03/23 07:56:46;;;;;;;;;;;11.20;99.90;;;;;;5066525;28;19924;-71
2023/03/23 07:59:12;;;;;;;;;;;11.20;99.90;;;;;;5002064;28;214117;-71
2023/03/23 08:01:38;;;;;;;;;;;11.10;99.90;;;;;;5041527;28;21243;-70
2023/03/23 08:04:05;;;;;;;;;;;11.20;99.90;;;;;;4993038;28;209357;-71
2023/03/23 08:06:34;;;;;;;;;;;11.20;99.90;;;;;;5069471;28;19921;-71
2023/03/23 08:09:02;;;;;;;;;;;11.20;99.90;;;;;;5006863;28;211341;-71
2023/03/23 08:11:28;;;;;;;;;;;11.20;99.90;;;;;;5037870;28;19973;-70
2023/03/23 08:13:54;;;;;;;;;;;11.20;99.90;;;;;;5008844;28;204327;-72
2023/03/23 08:16:20;;;;;;;;;;;11.20;99.90;;;;;;5067215;28;20615;-72
2023/03/23 08:18:46;;;;;;;;;;;11.30;99.90;;;;;;5002579;28;207230;-71
2023/03/23 08:21:12;;;;;;;;;;;11.30;99.90;;;;;;5059835;28;19925;-71
2023/03/23 08:23:38;;;;;;;;;;;11.30;99.90;;;;;;5043307;28;227355;-72
2023/03/23 08:26:06;;;;;;;;;;;11.30;99.90;;;;;;5011682;28;19986;-72
2023/03/23 08:28:36;;;;;;;;;;;11.40;99.90;;;;;;5056095;28;20419;-71
2023/03/23 08:31:06;;;;;;;;;;;11.40;99.90;;;;;;4978867;28;256566;-71
2023/03/23 08:33:33;;;;;;;;;;;11.30;99.90;;;;;;5059353;28;20339;-71
2023/03/23 08:36:00;;;;;;;;;;;11.30;99.90;;;;;;5010132;28;211181;-71
2023/03/23 08:38:27;;;;;;;;;;;11.30;99.90;;;;;;5058885;28;19921;-70
2023/03/23 08:40:57;;;;;;;;;;;11.30;99.90;;;;;;5010169;28;230990;-72
2023/03/23 08:43:23;;;;;;;;;;;11.30;99.90;;;;;;5071359;28;20400;-72
2023/03/23 08:45:49;;;;;;;;;;;11.40;99.90;;;;;;5002119;28;204686;-72
2023/03/23 08:48:16;;;;;;;;;;;11.40;99.90;;;;;;5052790;28;19929;-72
2023/03/23 08:50:42;;;;;;;;;;;11.60;99.90;;;;;;4972819;28;208946;-71
2023/03/23 08:53:08;;;;;;;;;;;12.20;99.90;;;;;;5057902;28;19924;-71
2023/03/23 08:55:34;;;;;;;;;;;12.00;99.90;;;;;;5005055;28;214584;-72
2023/03/23 08:58:00;;;;;;;;;;;12.20;99.90;;;;;;5066015;28;19920;-71
2023/03/23 09:00:27;;;;;;;;;;;12.60;99.90;;;;;;5011397;28;209675;-72
2023/03/23 09:02:53;;;;;;;;;;;12.30;99.90;;;;;;5061114;28;19955;-71
2023/03/23 09:05:24;;;;;;;;;;;12.60;99.90;;;;;;4990210;28;213152;-71
2023/03/23 09:07:52;;;;;;;;;;;12.40;99.90;;;;;;5059738;28;20297;-71
2023/03/23 09:10:18;;;;;;;;;;;12.40;99.90;;;;;;5003777;28;196439;-70
2023/03/23 09:12:45;;;;;;;;;;;12.20;99.90;;;;;;5054991;28;19932;-71
2023/03/23 09:15:13;;;;;;;;;;;12.40;99.90;;;;;;5012224;28;207964;-69
2023/03/23 09:17:41;;;;;;;;;;;12.50;99.90;;;;;;5065793;28;19939;-71
2023/03/23 09:20:11;;;;;;;;;;;12.20;99.90;;;;;;5014863;28;209271;-72
2023/03/23 09:22:39;;;;;;;;;;;12.30;99.90;;;;;;5065701;28;19924;-71
2023/03/23 09:25:06;;;;;;;;;;;12.20;99.90;;;;;;5002896;28;213637;-71
2023/03/23 09:27:32;;;;;;;;;;;12.40;99.90;;;;;;5060779;28;20301;-72
2023/03/23 09:29:58;;;;;;;;;;;12.70;99.90;;;;;;5005103;28;212057;-71
2023/03/23 09:32:25;;;;;;;;;;;13.10;99.90;;;;;;5070040;28;20313;-72
2023/03/23 09:34:54;;;;;;;;;;;12.80;99.90;;;;;;5007486;28;170279;-71
2023/03/23 09:37:22;;;;;;;;;;;12.50;99.90;;;;;;5066276;28;19928;-71
2023/03/23 09:39:49;;;;;;;;;;;12.70;99.90;;;;;;5019436;28;209490;-72
2023/03/23 09:42:21;;;;;;;;;;;12.60;99.90;;;;;;5056290;28;19931;-71
2023/03/23 09:44:51;;;;;;;;;;;13.40;99.90;;;;;;5010742;28;226216;-70
2023/03/23 09:47:31;;;;;;;;;;;14.10;99.90;;;;;;5071120;28;19928;-72
2023/03/23 09:50:03;;;;;;;;;;;14.70;99.90;;;;;;5033672;28;38488;-72
2023/03/23 09:52:37;;;;;;;;;;;15.30;99.90;;;;;;5059128;28;19952;-72
2023/03/23 09:55:03;;;;;;;;;;;15.00;99.90;;;;;;5005895;28;206097;-70
2023/03/23 09:57:29;;;;;;;;;;;15.00;99.90;;;;;;5056955;28;20423;-71
2023/03/23 09:59:59;;;;;;;;;;;14.50;99.90;;;;;;5007665;28;206210;-70
2023/03/23 10:02:45;;;;;;;;;;;14.70;99.90;;;;;;5064462;28;19931;-71
2023/03/23 10:05:14;;;;;;;;;;;15.20;99.90;;;;;;4992603;28;211865;-72
2023/03/23 10:07:40;;;;;;;;;;;15.70;99.90;;;;;;5073986;28;19934;-73
2023/03/23 10:10:12;;;;;;;;;;;16.10;99.90;;;;;;5009924;28;232909;-71
2023/03/23 10:13:01;;;;;;;;;;;15.90;99.90;;;;;;5065974;28;19947;-72
2023/03/23 10:15:30;;;;;;;;;;;16.70;99.90;;;;;;5000861;28;207829;-71
2023/03/23 10:18:15;;;;;;;;;;;16.70;99.90;;;;;;5060771;28;19934;-72
2023/03/23 10:20:55;;;;;;;;;;;16.50;99.90;;;;;;5009834;28;211711;-71
2023/03/23 10:23:35;;;;;;;;;;;16.60;99.90;;;;;;5063846;28;19936;-72
2023/03/23 10:26:08;;;;;;;;;;;16.20;99.90;;;;;;5013573;28;206557;-72
2023/03/23 10:28:35;;;;;;;;;;;15.50;99.90;;;;;;5062058;28;19935;-72
2023/03/23 10:31:02;;;;;;;;;;;15.80;99.90;;;;;;5022405;28;205768;-72
2023/03/23 10:33:29;;;;;;;;;;;15.40;99.90;;;;;;5061560;28;20470;-72
2023/03/23 10:36:12;;;;;;;;;;;15.20;99.90;;;;;;5002061;28;207886;-72
2023/03/23 10:38:41;;;;;;;;;;;15.90;99.90;;;;;;5041576;28;207644;-71
2023/03/23 10:41:11;;;;;;;;;;;16.50;99.90;;;;;;5023843;28;163210;-72
2023/03/23 10:43:39;;;;;;;;;;;16.60;99.90;;;;;;5053411;28;206486;-72
2023/03/23 10:46:11;;;;;;;;;;;16.60;99.90;;;;;;5001738;28;206327;-72
2023/03/23 10:48:38;;;;;;;;;;;16.00;99.90;;;;;;5053207;28;224579;-71
2023/03/23 10:51:06;;;;;;;;;;;15.60;99.90;;;;;;5016327;28;212172;-72
2023/03/23 10:53:34;;;;;;;;;;;14.90;99.90;;;;;;5046096;28;19921;-72
2023/03/23 10:56:00;;;;;;;;;;;14.50;99.90;;;;;;5021173;28;208090;-72
2023/03/23 10:58:35;;;;;;;;;;;14.20;99.90;;;;;;5055589;28;19953;-71
2023/03/23 11:01:03;;;;;;;;;;;14.10;99.90;;;;;;5029766;28;59772;-72
2023/03/23 11:03:32;;;;;;;;;;;14.30;99.90;;;;;;5053278;28;19924;-72
2023/03/23 11:05:59;;;;;;;;;;;15.20;99.90;;;;;;4981175;28;240756;-71
2023/03/23 11:08:28;;;;;;;;;;;16.00;99.90;;;;;;5063877;28;19924;-72
2023/03/23 11:10:56;;;;;;;;;;;16.40;99.90;;;;;;5018729;28;206190;-72
2023/03/23 11:13:29;;;;;;;;;;;16.50;99.90;;;;;;5059924;28;19925;-72
2023/03/23 11:15:55;;;;;;;;;;;16.60;99.90;;;;;;5015179;28;218653;-72
2023/03/23 11:18:23;;;;;;;;;;;17.50;99.90;;;;;;5059509;28;19931;-74
2023/03/23 11:20:56;;;;;;;;;;;17.20;99.80;;;;;;5010018;28;155003;-73
2023/03/23 11:23:31;;;;;;;;;;;16.90;99.70;;;;;;5056522;28;19928;-73
2023/03/23 11:25:59;;;;;;;;;;;16.30;99.90;;;;;;5006747;28;205662;-73
2023/03/23 11:28:27;;;;;;;;;;;15.80;99.90;;;;;;5061330;28;19920;-74
2023/03/23 11:30:54;;;;;;;;;;;16.00;99.90;;;;;;5004620;28;208024;-74
2023/03/23 11:33:20;;;;;;;;;;;16.10;99.90;;;;;;5058887;28;19920;-74
2023/03/23 11:35:46;;;;;;;;;;;16.20;99.90;;;;;;4980394;28;214436;-73
2023/03/23 11:38:20;;;;;;;;;;;16.90;99.90;;;;;;5057743;28;21119;-73
2023/03/23 11:40:51;;;;;;;;;;;17.60;99.40;;;;;;5011808;28;209598;-73
2023/03/23 11:43:22;;;;;;;;;;;17.20;99.30;;;;;;5057461;28;19932;-73
2023/03/23 11:45:57;;;;;;;;;;;17.50;98.80;;;;;;5009424;28;211335;-73
2023/03/23 11:48:26;;;;;;;;;;;17.20;98.80;;;;;;5068984;28;20420;-74
2023/03/23 11:50:52;;;;;;;;;;;16.70;99.00;;;;;;4994014;28;229845;-74
2023/03/23 11:53:30;;;;;;;;;;;16.00;99.70;;;;;;5070617;28;19930;-73
2023/03/23 11:56:00;;;;;;;;;;;16.70;99.30;;;;;;4987896;28;206086;-73
2023/03/23 11:58:32;;;;;;;;;;;17.10;99.90;;;;;;5058947;28;19920;-74
2023/03/23 12:01:06;;;;;;;;;;;17.30;99.60;;;;;;5013514;28;208210;-73
2023/03/23 12:03:46;;;;;;;;;;;17.00;98.00;;;;;;5055973;28;20309;-74
2023/03/23 12:06:14;;;;;;;;;;;16.30;97.80;;;;;;4985703;28;19920;-73
2023/03/23 12:08:46;;;;;;;;;;;16.00;97.90;;;;;;5033975;28;206315;-74
2023/03/23 12:11:23;;;;;;;;;;;15.50;98.10;;;;;;5019133;28;20253;-73
2023/03/23 12:13:55;;;;;;;;;;;15.00;98.90;;;;;;4999157;28;228330;-73
2023/03/23 12:16:22;;;;;;;;;;;15.20;99.30;;;;;;5049677;28;20308;-74
2023/03/23 12:19:03;;;;;;;;;;;15.50;98.90;;;;;;5010022;28;227390;-75
2023/03/23 12:21:35;;;;;;;;;;;15.10;98.30;;;;;;5053583;28;20400;-74
2023/03/23 12:24:04;;;;;;;;;;;15.50;99.40;;;;;;5023580;28;205582;-74
2023/03/23 12:26:49;;;;;;;;;;;15.60;97.90;;;;;;5043498;28;20609;-75
2023/03/23 12:29:18;;;;;;;;;;;15.40;98.20;;;;;;5014724;28;210130;-75
2023/03/23 12:31:51;;;;;;;;;;;15.10;98.60;;;;;;5046394;28;20539;-74
2023/03/23 12:34:32;;;;;;;;;;;15.20;98.80;;;;;;4998907;28;252630;-75
2023/03/23 12:37:04;;;;;;;;;;;15.30;99.00;;;;;;5056509;28;20300;-73
2023/03/23 12:39:43;;;;;;;;;;;15.40;98.90;;;;;;5027864;28;212031;-74
2023/03/23 12:42:09;;;;;;;;;;;15.20;99.40;;;;;;5070300;28;19963;-75
2023/03/23 12:44:42;;;;;;;;;;;14.80;99.10;;;;;;5015714;28;208798;-72
2023/03/23 12:47:08;;;;;;;;;;;15.00;99.80;;;;;;5063233;28;19924;-74
2023/03/23 12:49:37;;;;;;;;;;;14.80;99.70;;;;;;4998900;28;217192;-72
2023/03/23 12:52:22;;;;;;;;;;;15.60;99.20;;;;;;5051862;28;19956;-74
2023/03/23 12:54:54;;;;;;;;;;;15.80;99.40;;;;;;5015043;28;208467;-73
2023/03/23 12:57:27;;;;;;;;;;;16.30;99.30;;;;;;5060990;28;19983;-76
2023/03/23 12:59:56;;;;;;;;;;;16.60;98.60;;;;;;5006451;28;205060;-74
2023/03/23 13:02:30;;;;;;;;;;;16.70;98.40;;;;;;5023915;28;20603;-73
2023/03/23 13:05:05;;;;;;;;;;;16.40;98.80;;;;;;4989368;28;206047;-74
2023/03/23 13:07:41;;;;;;;;;;;16.80;99.60;;;;;;5045219;28;19951;-75
2023/03/23 13:10:15;;;;;;;;;;;16.90;98.20;;;;;;5009101;28;159863;-74
2023/03/23 13:12:41;;;;;;;;;;;17.40;98.50;;;;;;5046254;28;19924;-73
2023/03/23 13:15:10;;;;;;;;;;;17.00;98.20;;;;;;4987820;28;207802;-74
2023/03/23 13:17:46;;;;;;;;;;;17.40;98.10;;;;;;5063288;28;19920;-74
2023/03/23 13:20:31;;;;;;;;;;;16.80;98.40;;;;;;5005252;28;213355;-74
2023/03/23 13:22:57;;;;;;;;;;;16.50;98.70;;;;;;5057666;28;19931;-74
2023/03/23 13:25:45;;;;;;;;;;;15.90;98.80;;;;;;5005961;28;221355;-73
2023/03/23 13:28:20;;;;;;;;;;;16.00;99.30;;;;;;5052373;28;19936;-74
2023/03/23 13:31:00;;;;;;;;;;;15.80;99.80;;;;;;5015550;28;152224;-74
2023/03/23 13:33:28;;;;;;;;;;;16.20;99.90;;;;;;5046280;28;19928;-73
2023/03/23 13:35:55;;;;;;;;;;;16.80;98.60;;;;;;5027502;28;207243;-73
2023/03/23 13:38:25;;;;;;;;;;;17.20;97.90;;;;;;5044629;28;19921;-74
2023/03/23 13:40:53;;;;;;;;;;;17.90;98.30;;;;;;5016296;28;207397;-73
2023/03/23 13:43:29;;;;;;;;;;;17.50;97.00;;;;;;5066000;28;20011;-74
2023/03/23 13:46:05;;;;;;;;;;;16.70;97.40;;;;;;4991396;28;141346;-73
2023/03/23 13:48:39;;;;;;;;;;;16.70;97.40;;;;;;5061443;28;19942;-72
2023/03/23 13:51:24;;;;;;;;;;;16.20;98.50;;;;;;5033361;28;27355;-73
2023/03/23 13:53:51;;;;;;;;;;;16.20;98.40;;;;;;4996254;28;208014;-73
2023/03/23 13:56:21;;;;;;;;;;;15.90;99.50;;;;;;5073919;28;19924;-74
2023/03/23 13:58:49;;;;;;;;;;;15.90;99.00;;;;;;5003545;28;207451;-75
2023/03/23 14:01:16;;;;;;;;;;;15.70;99.30;;;;;;5052621;28;19928;-73
2023/03/23 14:03:50;;;;;;;;;;;16.30;99.50;;;;;;5013350;28;229931;-73
2023/03/23 14:06:18;;;;;;;;;;;16.30;98.00;;;;;;5011330;28;130946;-74
2023/03/23 14:08:45;;;;;;;;;;;15.60;98.70;;;;;;5017231;28;209997;-72
2023/03/23 14:11:13;;;;;;;;;;;16.30;98.90;;;;;;5040259;28;19929;-74
2023/03/23 14:13:49;;;;;;;;;;;17.40;97.90;;;;;;5038708;28;206848;-73
2023/03/23 14:16:18;;;;;;;;;;;17.40;97.50;;;;;;4997464;28;19944;-74
2023/03/23 14:18:50;;;;;;;;;;;17.10;98.00;;;;;;5010109;28;208807;-73
2023/03/23 14:21:17;;;;;;;;;;;17.80;97.70;;;;;;5069145;28;19947;-74